Terminal Aerodrome Forecast
Issued by NWS

Home | Current Version | Previous Version | Text Only | Print | Product List | Glossary Off
Versions: 1 2 3 4 5 6 7 8 9 10 11 12 13

000
FTUS43 KPAH 251133
TAFOWB
TAF
KOWB 251133Z 2512/2612 28011G17KT P6SM OVC013
      TEMPO 2513/2516 BKN009
     FM251600 29013G20KT P6SM OVC020
     FM251900 28013G21KT P6SM SCT040
     FM260000 27007KT P6SM FEW050 SCT250
     FM260500 VRB03KT P6SM SCT180=

USA.gov is the U.S. government's official web portal to all federal, state and local government web resources and services.